Time;durP1;ratioP1;P1;durP2;ratioP2;P2;SDS_P1;SDS_P2;PMS_P1;PMS_P2;Temp;Humidity;BMP_temperature;BMP_pressure;BME280_temperature;BME280_humidity;BME280_pressure;Samples;Min_cycle;Max_cycle;Signal;HPM_P1;HPM_P2
2022/09/20 00:01:38;;;;;;;2.07;0.77;;;;;;;7.47;100.00;101072.19;5074229;28;20445;-79
2022/09/20 00:04:03;;;;;;;3.35;0.80;;;;;;;7.44;100.00;101073.28;5027322;28;20291;-78
2022/09/20 00:06:30;;;;;;;1.77;1.02;;;;;;;7.35;100.00;101068.78;5045883;28;20035;-79
2022/09/20 00:09:14;;;;;;;2.88;0.90;;;;;;;7.18;100.00;101070.25;5026697;28;20052;-77
2022/09/20 00:11:42;;;;;;;6.13;1.92;;;;;;;7.13;100.00;101065.34;5061346;28;20025;-78
2022/09/20 00:14:08;;;;;;;4.95;1.10;;;;;;;7.02;100.00;101061.94;5061547;28;20016;-79
2022/09/20 00:16:39;;;;;;;9.23;2.25;;;;;;;7.04;100.00;101068.78;5063337;28;20119;-79
2022/09/20 00:19:06;;;;;;;2.35;1.00;;;;;;;6.97;100.00;101072.94;5046233;28;20028;-80
2022/09/20 00:21:32;;;;;;;;;;;;;;;6.96;100.00;101079.22;5065020;28;20035;-77
2022/09/20 00:23:58;;;;;;;7.75;1.73;;;;;;;6.94;100.00;101076.69;5043324;28;19916;-77
2022/09/20 00:26:37;;;;;;;1.63;0.82;;;;;;;6.89;100.00;101076.25;5063935;28;20027;-78
2022/09/20 00:29:04;;;;;;;2.50;1.23;;;;;;;6.86;100.00;101078.31;5063904;28;20077;-78
2022/09/20 00:31:29;;;;;;;;;;;;;;;6.95;100.00;101099.63;5048387;28;20023;-77
2022/09/20 00:37:19;;;;;;;5.43;1.77;;;;;;;6.81;100.00;101101.75;5041046;28;20166;-77
2022/09/20 00:40:11;;;;;;;5.43;2.03;;;;;;;6.78;100.00;101094.06;5045015;28;20071;-77
2022/09/20 00:42:37;;;;;;;8.07;1.38;;;;;;;6.78;100.00;101102.03;5056743;28;20060;-77
2022/09/20 00:45:07;;;;;;;3.47;1.30;;;;;;;6.78;100.00;101107.31;5045557;28;20020;-77
2022/09/20 00:47:33;;;;;;;1.63;0.85;;;;;;;6.73;100.00;101100.59;5063014;28;20116;-80
2022/09/20 00:51:03;;;;;;;2.80;0.97;;;;;;;6.75;100.00;101100.47;5064165;28;20096;-77
2022/09/20 00:53:37;;;;;;;4.30;1.63;;;;;;;6.70;100.00;101095.56;4965521;28;20035;-79
2022/09/20 00:56:25;;;;;;;1.55;1.10;;;;;;;6.69;100.00;101104.47;4950757;28;20515;-77
2022/09/20 00:59:29;;;;;;;2.55;1.10;;;;;;;6.62;100.00;101108.59;4962085;28;20042;-78
2022/09/20 01:02:27;;;;;;;3.13;1.20;;;;;;;6.52;100.00;101102.38;4952668;28;20046;-77
2022/09/20 01:05:06;;;;;;;1.73;1.00;;;;;;;6.52;100.00;101107.69;4956917;28;20047;-77
2022/09/20 01:08:00;;;;;;;4.40;1.23;;;;;;;6.51;100.00;101113.97;4968626;28;20049;-78
2022/09/20 01:10:26;;;;;;;3.25;1.40;;;;;;;6.46;100.00;101109.06;4968534;28;20419;-77
2022/09/20 01:12:53;;;;;;;3.78;1.10;;;;;;;6.39;100.00;101113.19;4935901;28;20118;-79
2022/09/20 01:15:19;;;;;;;3.75;1.42;;;;;;;6.36;100.00;101109.94;4972380;28;20472;-81
2022/09/20 01:17:51;;;;;;;3.25;2.15;;;;;;;6.45;100.00;101119.78;4961768;28;20058;-79
2022/09/20 01:20:19;;;;;;;2.45;1.50;;;;;;;6.64;100.00;101127.88;4973918;28;20053;-78
2022/09/20 01:22:48;;;;;;;4.20;1.58;;;;;;;6.47;100.00;101125.81;4975645;28;20031;-80
2022/09/20 01:25:19;;;;;;;3.95;2.20;;;;;;;6.60;100.00;101142.38;5070698;28;20426;-79
2022/09/20 01:27:47;;;;;;;4.90;1.48;;;;;;;6.47;100.00;101139.06;5041695;28;20036;-83
2022/09/20 01:30:20;;;;;;;4.47;1.55;;;;;;;6.35;100.00;101127.66;5068783;28;20020;-80
2022/09/20 01:33:00;;;;;;;4.65;2.15;;;;;;;6.36;100.00;101144.41;5052340;28;20024;-78
2022/09/20 01:35:27;;;;;;;7.80;2.28;;;;;;;6.54;100.00;101148.19;5049214;28;20082;-79
2022/09/20 01:38:15;;;;;;;5.45;1.90;;;;;;;6.50;100.00;101146.75;5070311;28;20012;-80
2022/09/20 01:41:25;;;;;;;8.70;2.55;;;;;;;6.55;100.00;101149.88;5044922;28;20039;-76
2022/09/20 01:44:02;;;;;;;4.32;2.03;;;;;;;6.60;100.00;101163.59;5063349;28;20048;-78
2022/09/20 01:46:30;;;;;;;2.97;1.98;;;;;;;6.65;100.00;101164.09;5052412;28;20082;-78
2022/09/20 01:49:20;;;;;;;5.30;2.53;;;;;;;6.66;100.00;101157.78;5065624;28;20106;-77
2022/09/20 01:51:51;;;;;;;5.85;2.25;;;;;;;6.64;100.00;101161.53;5066720;28;20040;-77
2022/09/20 01:55:08;;;;;;;5.60;2.25;;;;;;;6.45;100.00;101152.44;5034797;28;20041;-78
2022/09/20 01:58:09;;;;;;;3.55;2.25;;;;;;;6.48;100.00;101159.31;5002487;28;20045;-77
2022/09/20 02:00:53;;;;;;;5.10;2.38;;;;;;;6.75;100.00;101167.66;5066367;28;20028;-78
2022/09/20 02:03:52;;;;;;;6.13;2.00;;;;;;;6.57;100.00;101171.81;5051938;28;20086;-78
2022/09/20 02:06:39;;;;;;;7.13;2.35;;;;;;;6.50;100.00;101165.34;5067723;28;20072;-78
2022/09/20 02:09:29;;;;;;;4.78;2.20;;;;;;;6.37;100.00;101162.84;5068468;28;20032;-78
2022/09/20 02:12:10;;;;;;;5.68;2.05;;;;;;;6.25;100.00;101150.56;5051614;28;20096;-78
2022/09/20 02:15:09;;;;;;;6.18;2.50;;;;;;;6.25;100.00;101161.19;5063789;28;20071;-78
2022/09/20 02:18:12;;;;;;;6.45;2.55;;;;;;;6.17;100.00;101161.81;5060548;28;20040;-77
2022/09/20 02:20:56;;;;;;;5.72;2.35;;;;;;;6.02;100.00;101152.44;5034549;28;20029;-77
2022/09/20 02:23:48;;;;;;;5.50;2.10;;;;;;;5.96;100.00;101160.88;5032474;28;20182;-78
2022/09/20 02:26:30;;;;;;;2.50;2.15;;;;;;;5.95;100.00;101161.81;5045874;28;20091;-78
2022/09/20 02:29:38;;;;;;;4.65;2.30;;;;;;;5.93;100.00;101162.78;5068498;28;20351;-77
2022/09/20 02:33:27;;;;;;;4.28;2.17;;;;;;;6.05;100.00;101168.94;5045555;28;20071;-77
2022/09/20 02:36:32;;;;;;;4.47;2.28;;;;;;;6.01;100.00;101164.00;5063403;28;20093;-77
2022/09/20 02:39:25;;;;;;;8.45;3.60;;;;;;;6.22;100.00;101174.69;5041511;28;20486;-77
2022/09/20 02:41:52;;;;;;;4.50;2.67;;;;;;;6.14;100.00;101183.28;5047861;28;20382;-78
2022/09/20 02:44:49;;;;;;;11.20;3.30;;;;;;;6.32;100.00;101187.09;5062419;28;20493;-77
2022/09/20 02:47:42;;;;;;;5.07;2.85;;;;;;;6.19;100.00;101191.69;5061098;28;20072;-78
2022/09/20 02:50:45;;;;;;;4.85;2.70;;;;;;;6.14;100.00;101193.88;5065124;28;20032;-77
2022/09/20 02:53:32;;;;;;;5.75;2.50;;;;;;;5.97;100.00;101181.09;5061837;28;20110;-77
2022/09/20 02:56:34;;;;;;;5.82;2.50;;;;;;;5.93;100.00;101186.63;5031295;28;20703;-77
2022/09/20 02:59:00;;;;;;;3.47;2.50;;;;;;;5.83;100.00;101190.97;5049884;28;20054;-77
2022/09/20 03:01:53;;;;;;;5.57;2.80;;;;;;;5.74;100.00;101180.25;5067525;28;20553;-78
2022/09/20 03:04:41;;;;;;;7.05;2.85;;;;;;;5.79;100.00;101183.38;5045855;28;20037;-78
2022/09/20 03:07:48;;;;;;;;;;;;;;;;;;;;;
2022/09/20 03:10:15;;;;;;;8.90;3.03;;;;;;;5.87;100.00;101197.69;5064446;28;20098;-77
2022/09/20 03:12:59;;;;;;;12.23;3.40;;;;;;;5.87;100.00;101197.69;5050244;28;20025;-77
2022/09/20 03:15:40;;;;;;;3.17;2.55;;;;;;;5.99;100.00;101208.34;5062792;28;20032;-77
2022/09/20 03:18:14;;;;;;;8.68;3.90;;;;;;;6.13;100.00;101203.63;5064494;28;20036;-79
2022/09/20 03:20:50;;;;;;;8.75;3.00;;;;;;;6.25;100.00;101214.22;5052513;28;20040;-79
2022/09/20 03:23:52;;;;;;;6.45;3.42;;;;;;;6.24;100.00;101215.19;5031163;28;20150;-77
2022/09/20 03:26:34;;;;;;;7.25;3.42;;;;;;;6.26;100.00;101208.78;5061946;28;20036;-78
2022/09/20 03:29:04;;;;;;;9.10;3.20;;;;;;;6.26;100.00;101219.41;5046046;28;20031;-77
2022/09/20 03:31:53;;;;;;;6.80;3.35;;;;;;;6.27;100.00;101213.13;5062723;28;20111;-77
2022/09/20 03:34:59;;;;;;;8.20;3.17;;;;;;;6.19;100.00;101217.38;5065683;28;20474;-78
2022/09/20 03:37:34;;;;;;;7.38;3.45;;;;;;;6.22;100.00;101217.94;5063915;28;20051;-77
2022/09/20 03:43:32;;;;;;;9.15;3.53;;;;;;;6.01;100.00;101223.16;4972778;28;20043;-79
2022/09/20 03:46:20;;;;;;;5.53;2.92;;;;;;;5.95;100.00;101217.47;4967545;28;20145;-76
2022/09/20 03:49:18;;;;;;;8.65;3.35;;;;;;;6.30;100.00;101225.31;4968596;28;20119;-77
2022/09/20 03:52:02;;;;;;;11.55;3.83;;;;;;;6.24;100.00;101226.63;5051690;22;20045;-81
2022/09/20 03:54:41;;;;;;;8.68;3.55;;;;;;;6.27;100.00;101236.97;5033202;28;20073;-86
2022/09/20 03:57:22;;;;;;;5.32;2.75;;;;;;;6.29;100.00;101229.75;5082596;22;20081;-79
2022/09/20 03:59:51;;;;;;;7.63;3.97;;;;;;;6.31;100.00;101232.28;5062589;28;20044;-78
2022/09/20 04:02:35;;;;;;;7.20;3.60;;;;;;;6.29;100.00;101232.41;5046688;28;20056;-79
2022/09/20 04:05:03;;;;;;;5.78;3.42;;;;;;;6.39;100.00;101240.50;5046122;28;20124;-78
2022/09/20 04:07:57;;;;;;;8.27;4.35;;;;;;;6.39;100.00;101234.31;5045448;28;20029;-78
2022/09/20 04:10:43;;;;;;;6.40;3.75;;;;;;;6.37;100.00;101236.25;5050743;28;20037;-79
2022/09/20 04:13:27;;;;;;;8.27;3.38;;;;;;;6.49;100.00;101241.41;5046667;28;20028;-80
2022/09/20 04:16:00;;;;;;;9.43;4.38;;;;;;;6.46;100.00;101240.81;5050206;28;20397;-79
2022/09/20 04:18:40;;;;;;;7.20;3.35;;;;;;;6.39;100.00;101234.31;5050994;28;20044;-80
2022/09/20 04:21:22;;;;;;;5.53;3.05;;;;;;;6.36;100.00;101235.41;5050103;28;20028;-79
2022/09/20 04:24:00;;;;;;;10.02;3.83;;;;;;;6.28;100.00;101238.69;5064091;28;20029;-80
2022/09/20 04:26:33;;;;;;;8.68;2.88;;;;;;;6.34;100.00;101245.28;5033379;28;20071;-79
2022/09/20 04:29:34;;;;;;;12.45;3.47;;;;;;;6.30;100.00;101247.38;5031230;28;20033;-81
2022/09/20 04:32:11;;;;;;;8.30;3.58;;;;;;;6.45;100.00;101252.41;5024296;28;20116;-80
2022/09/20 04:37:35;;;;;;;8.65;3.65;;;;;;;6.41;100.00;101258.91;5037727;28;20462;-79
2022/09/20 04:40:14;;;;;;;7.40;3.33;;;;;;;6.42;100.00;101260.63;5028846;28;20070;-81
2022/09/20 04:42:58;;;;;;;10.50;3.47;;;;;;;6.67;100.00;101264.75;5022668;28;20486;-81
2022/09/20 04:45:30;;;;;;;8.20;2.78;;;;;;;6.65;100.00;101262.25;5044666;28;20037;-79
2022/09/20 04:48:13;;;;;;;10.23;4.28;;;;;;;6.72;100.00;101260.78;5043027;28;20079;-80
2022/09/20 04:51:01;;;;;;;7.68;2.90;;;;;;;6.75;100.00;101265.84;5047929;28;20114;-78
2022/09/20 04:53:56;;;;;;;10.73;2.90;;;;;;;6.92;100.00;101271.56;5043849;28;20036;-80
2022/09/20 04:56:43;;;;;;;8.30;3.58;;;;;;;6.86;100.00;101266.75;5054393;28;20041;-79
2022/09/20 04:59:14;;;;;;;22.35;4.88;;;;;;;6.95;100.00;101281.94;5039741;28;20083;-78
2022/09/20 05:02:02;;;;;;;17.38;4.10;;;;;;;7.00;100.00;101277.13;5052613;28;20040;-80
2022/09/20 05:04:46;;;;;;;13.18;3.10;;;;;;;7.00;100.00;101277.13;5035968;28;20044;-80
2022/09/20 05:07:40;;;;;;;12.55;3.47;;;;;;;6.92;100.00;101283.03;5036598;28;20112;-80
2022/09/20 05:10:24;;;;;;;11.27;2.50;;;;;;;6.96;100.00;101273.84;5037386;28;20589;-80
2022/09/20 05:13:20;;;;;;;7.45;2.65;;;;;;;6.96;100.00;101280.97;5025671;28;20102;-80
2022/09/20 05:16:04;;;;;;;9.85;3.03;;;;;;;7.01;100.00;101291.22;5037823;28;20406;-79
2022/09/20 05:19:06;;;;;;;12.43;3.25;;;;;;;6.97;100.00;101282.66;5055872;28;20136;-79
2022/09/20 05:21:50;;;;;;;6.03;2.90;;;;;;;6.97;100.00;101280.00;5026767;28;20079;-81
2022/09/20 05:24:33;;;;;;;9.10;2.83;;;;;;;6.92;100.00;101282.19;5036118;28;20113;-79
2022/09/20 05:27:34;;;;;;;8.38;1.92;;;;;;;6.95;100.00;101279.28;5039396;28;20041;-80
2022/09/20 05:30:11;;;;;;;9.55;2.35;;;;;;;6.95;100.00;101285.47;5045631;28;20132;-79
2022/09/20 05:33:19;;;;;;;13.40;2.35;;;;;;;7.05;100.00;101285.53;5031262;28;20067;-80
2022/09/20 05:36:10;;;;;;;16.40;3.53;;;;;;;7.03;100.00;101287.47;5053454;28;20752;-79
2022/09/20 05:38:58;;;;;;;10.20;3.38;;;;;;;7.06;100.00;101289.03;5034999;28;20036;-80
2022/09/20 05:41:39;;;;;;;6.63;1.98;;;;;;;7.05;100.00;101287.34;5040070;28;20071;-79
2022/09/20 05:44:30;;;;;;;13.65;2.72;;;;;;;7.11;100.00;101290.31;5054392;28;20029;-81
2022/09/20 05:47:17;;;;;;;9.63;2.78;;;;;;;7.28;100.00;101296.03;5040489;28;20131;-81
2022/09/20 05:50:07;;;;;;;13.73;2.20;;;;;;;7.36;100.00;101301.59;5035853;28;20098;-80
2022/09/20 05:52:46;;;;;;;7.75;2.20;;;;;;;7.38;100.00;101289.00;5057045;28;20028;-81
2022/09/20 05:55:42;;;;;;;11.32;2.65;;;;;;;7.46;100.00;101291.03;5037435;28;20022;-81
2022/09/20 05:58:26;;;;;;;9.40;2.00;;;;;;;7.61;100.00;101297.72;5049411;28;20452;-82
2022/09/20 06:01:11;;;;;;;10.68;2.17;;;;;;;8.36;100.00;101317.84;5043463;28;20031;-81
2022/09/20 06:03:47;;;;;;;10.17;1.83;;;;;;;9.73;100.00;101332.19;5043463;28;20052;-80
2022/09/20 06:06:34;;;;;;;14.52;2.70;;;;;;;10.57;100.00;101326.88;5056361;28;20029;-81
2022/09/20 06:09:16;;;;;;;6.18;1.85;;;;;;;11.15;100.00;101293.63;5055944;28;20032;-79
2022/09/20 06:11:50;;;;;;;11.13;1.42;;;;;;;11.75;100.00;101268.00;5064726;28;20071;-79
2022/09/20 06:14:38;;;;;;;4.90;1.42;;;;;;;12.08;100.00;101215.56;5050773;28;20032;-79
2022/09/20 06:17:35;;;;;;;5.63;2.30;;;;;;;11.90;100.00;101155.94;5042489;28;20032;-80
2022/09/20 06:20:49;;;;;;;13.25;1.90;;;;;;;11.94;100.00;101106.44;5046662;28;20033;-81
2022/09/20 06:23:15;;;;;;;9.73;1.40;;;;;;;12.16;100.00;101056.81;5009812;28;20059;-81
2022/09/20 06:25:46;;;;;;;11.65;2.53;;;;;;;12.41;100.00;101004.13;5055232;28;20076;-80
2022/09/20 06:28:18;;;;;;;9.82;1.98;;;;;;;12.74;100.00;100954.03;5058930;28;20038;-78
2022/09/20 06:30:47;;;;;;;9.35;1.45;;;;;;;12.37;100.00;100860.91;5041279;28;20029;-79
2022/09/20 06:33:24;;;;;;;6.72;1.48;;;;;;;12.40;100.00;100866.72;5068851;28;20021;-78
2022/09/20 06:42:11;;;;;;;14.38;2.88;;;;;;;12.83;100.00;100839.63;5059948;28;20032;-79
2022/09/20 06:44:42;;;;;;;6.50;1.30;;;;;;;12.94;100.00;100815.09;5047599;28;20017;-79
2022/09/20 06:47:11;;;;;;;12.15;2.10;;;;;;;12.78;100.00;100788.41;5058119;28;20151;-79
2022/09/20 06:49:40;;;;;;;10.85;1.88;;;;;;;12.77;100.00;100784.91;5063428;28;20086;-80
2022/09/20 06:52:16;;;;;;;10.10;2.20;;;;;;;13.13;100.00;100862.06;5062225;28;20084;-79
2022/09/20 06:54:46;;;;;;;9.45;1.95;;;;;;;12.71;100.00;100787.44;5061737;28;20028;-80
2022/09/20 06:57:17;;;;;;;8.30;2.20;;;;;;;12.56;100.00;100782.81;5032932;28;20080;-79
2022/09/20 06:59:43;;;;;;;8.40;2.00;;;;;;;12.56;100.00;100844.44;5059332;28;20059;-80
2022/09/20 07:02:09;;;;;;;8.55;1.75;;;;;;;12.75;100.00;100918.19;5058648;28;20036;-78
2022/09/20 07:04:35;;;;;;;14.80;1.75;;;;;;;12.94;100.00;100879.41;5036059;28;20033;-79
2022/09/20 07:07:02;;;;;;;8.48;1.70;;;;;;;12.51;100.00;100862.88;5062676;28;20283;-79
2022/09/20 07:09:27;;;;;;;11.07;1.70;;;;;;;12.59;100.00;100932.44;5046387;28;20041;-78
2022/09/20 07:11:54;;;;;;;6.90;2.17;;;;;;;13.21;100.00;100969.28;5062567;28;20027;-80
2022/09/20 07:14:22;;;;;;;7.32;1.75;;;;;;;13.43;100.00;100962.31;5061214;28;20094;-79
2022/09/20 07:16:47;;;;;;;8.35;1.92;;;;;;;13.76;100.00;100937.97;5063737;28;20193;-78
2022/09/20 07:19:12;;;;;;;7.25;1.80;;;;;;;13.27;100.00;100772.91;5059250;28;20167;-78
2022/09/20 07:21:38;;;;;;;13.57;1.87;;;;;;;13.50;100.00;100869.41;5033234;28;20035;-77
2022/09/20 07:24:03;;;;;;;21.40;1.90;;;;;;;13.82;100.00;100811.13;5046194;28;20036;-77
2022/09/20 07:26:29;;;;;;;13.10;1.77;;;;;;;13.51;100.00;100690.56;5052477;28;20025;-76
2022/09/20 07:28:57;;;;;;;9.98;1.70;;;;;;;13.66;100.00;100749.59;5059387;28;20164;-79
2022/09/20 07:31:25;;;;;;;10.38;2.63;;;;;;;13.83;100.00;100692.03;5059185;28;20036;-78
2022/09/20 07:33:50;;;;;;;15.48;2.58;;;;;;;14.20;100.00;100800.34;5060595;28;20039;-78
2022/09/20 07:36:16;;;;;;;10.43;2.03;;;;;;;14.44;100.00;100774.22;5045091;28;20029;-78
2022/09/20 07:38:49;;;;;;;5.45;1.55;;;;;;;14.78;100.00;100693.00;5041739;28;20032;-78
2022/09/20 07:41:17;;;;;;;9.00;1.88;;;;;;;14.96;100.00;100641.47;5056750;28;20040;-78
2022/09/20 07:43:43;;;;;;;13.60;2.20;;;;;;;15.15;100.00;100557.47;5029357;28;20013;-77
2022/09/20 07:46:12;;;;;;;11.85;2.35;;;;;;;14.82;100.00;100530.34;5058259;28;20473;-78
2022/09/20 07:48:38;;;;;;;4.60;1.45;;;;;;;15.11;100.00;100572.31;5060876;28;20046;-79
2022/09/20 07:51:07;;;;;;;12.07;1.75;;;;;;;14.71;100.00;100531.72;5059975;28;20084;-77
2022/09/20 07:53:33;;;;;;;13.00;1.80;;;;;;;15.51;100.00;100555.59;5043335;28;20140;-78
2022/09/20 07:56:10;;;;;;;14.32;2.40;;;;;;;16.06;100.00;100362.59;5032186;28;20037;-77
2022/09/20 07:58:36;;;;;;;8.95;2.03;;;;;;;16.00;100.00;100398.41;5031516;28;20409;-78
2022/09/20 08:01:07;;;;;;;10.27;1.80;;;;;;;16.29;100.00;100332.50;5046023;28;20020;-79
2022/09/20 08:03:33;;;;;;;7.57;2.35;;;;;;;16.92;100.00;100314.94;5059284;28;20044;-77
2022/09/20 08:06:00;;;;;;;7.05;2.20;;;;;;;17.01;100.00;100394.53;5055336;28;20081;-78
2022/09/20 08:08:27;;;;;;;9.30;2.00;;;;;;;17.19;100.00;100222.03;5060043;28;20041;-78
2022/09/20 08:11:01;;;;;;;11.80;1.80;;;;;;;16.63;100.00;100066.47;5056200;28;20526;-77
2022/09/20 08:13:28;;;;;;;11.95;2.60;;;;;;;17.63;98.11;100193.25;5040302;28;20033;-78
2022/09/20 08:16:01;;;;;;;11.65;2.42;;;;;;;17.62;97.43;100186.16;5055749;28;20177;-78
2022/09/20 08:18:27;;;;;;;9.52;1.75;;;;;;;17.19;95.71;100099.84;5060273;28;20029;-78
2022/09/20 08:20:54;;;;;;;10.43;2.40;;;;;;;17.38;97.31;100255.31;5052902;28;20019;-78
2022/09/20 08:23:19;;;;;;;9.20;2.05;;;;;;;18.08;93.20;100216.50;5026979;28;20172;-79
2022/09/20 08:25:47;;;;;;;8.67;2.07;;;;;;;18.01;86.78;99887.06;5055710;28;20112;-78
2022/09/20 08:28:12;;;;;;;8.88;1.75;;;;;;;18.29;89.38;100186.31;5055990;28;20040;-79
2022/09/20 08:30:38;;;;;;;11.38;2.55;;;;;;;18.40;85.39;100006.34;5042775;28;20025;-76
2022/09/20 08:33:03;;;;;;;7.23;1.60;;;;;;;18.19;80.97;99710.56;5046100;28;20033;-77
2022/09/20 08:35:29;;;;;;;9.10;1.90;;;;;;;18.74;80.92;99860.63;5057541;28;20474;-79
2022/09/20 08:37:54;;;;;;;10.13;1.63;;;;;;;17.55;80.95;99682.63;5057569;28;20361;-78
2022/09/20 08:40:22;;;;;;;8.60;1.65;;;;;;;18.50;80.69;99978.75;5058623;28;20282;-78
2022/09/20 08:42:48;;;;;;;9.95;1.52;;;;;;;18.04;78.73;99735.34;5059340;28;20456;-77
2022/09/20 08:45:21;;;;;;;11.27;2.15;;;;;;;18.46;78.72;99908.13;5025320;28;20033;-77
2022/09/20 08:47:56;;;;;;;8.88;2.35;;;;;;;18.68;78.30;99983.22;5045770;28;20041;-78
2022/09/20 08:50:22;;;;;;;6.93;2.13;;;;;;;18.90;76.63;99922.13;5056616;28;20029;-78
2022/09/20 08:52:52;;;;;;;10.45;2.70;;;;;;;18.88;76.53;99929.66;5043628;28;20514;-77
2022/09/20 08:55:26;;;;;;;8.20;1.67;;;;;;;18.72;73.82;99709.44;5058752;28;20544;-78
2022/09/20 08:57:55;;;;;;;10.63;1.63;;;;;;;18.34;73.84;99691.16;5059293;28;20034;-77
2022/09/20 09:00:24;;;;;;;7.88;1.60;;;;;;;18.51;76.05;99961.47;5056696;28;20022;-78
2022/09/20 09:02:54;;;;;;;8.13;1.70;;;;;;;18.55;74.15;99787.78;5059668;28;20036;-78
2022/09/20 09:05:45;;;;;;;7.63;2.03;;;;;;;18.47;72.20;99733.28;5057893;28;20030;-78
2022/09/20 09:08:15;;;;;;;6.93;1.40;;;;;;;19.36;74.29;100169.38;5058619;28;20024;-78
2022/09/20 09:10:43;;;;;;;6.35;1.55;;;;;;;19.65;72.19;100058.47;5055613;28;20020;-77
2022/09/20 09:13:20;;;;;;;10.18;1.88;;;;;;;19.65;71.40;99990.78;5057199;28;20036;-78
2022/09/20 09:15:52;;;;;;;8.35;1.67;;;;;;;19.30;70.41;99850.97;5037472;28;20090;-77
2022/09/20 09:18:17;;;;;;;10.18;1.70;;;;;;;20.20;70.16;100114.03;5072229;28;20040;-77
2022/09/20 09:20:45;;;;;;;8.45;1.65;;;;;;;19.48;68.08;99759.78;5060024;28;20020;-76
2022/09/20 09:23:25;;;;;;;9.02;1.98;;;;;;;20.03;66.82;99843.06;5055375;28;20105;-78
2022/09/20 09:25:53;;;;;;;6.57;2.00;;;;;;;19.10;66.88;99628.75;5055530;28;20024;-77
2022/09/20 09:28:23;;;;;;;8.57;2.03;;;;;;;18.70;66.13;99533.16;5056710;28;20127;-77
2022/09/20 09:30:49;;;;;;;6.32;1.67;;;;;;;19.02;66.63;99753.59;5061091;28;20489;-77
2022/09/20 09:33:32;;;;;;;6.87;1.63;;;;;;;19.18;65.98;99793.38;5057434;28;20031;-77
2022/09/20 09:36:07;;;;;;;10.93;2.08;;;;;;;19.38;66.90;99922.81;5055772;28;20028;-76
2022/09/20 09:38:35;;;;;;;5.28;1.80;;;;;;;19.17;66.76;99895.38;5054788;28;20044;-77
2022/09/20 09:41:04;;;;;;;7.50;2.13;;;;;;;19.51;68.66;100149.13;5053547;28;20205;-77
2022/09/20 09:43:36;;;;;;;10.32;2.28;;;;;;;20.15;66.79;100155.41;5053768;28;20462;-77
2022/09/20 09:46:22;;;;;;;9.63;2.13;;;;;;;20.04;64.95;99963.91;5052829;28;20123;-78
2022/09/20 09:49:18;;;;;;;8.80;1.73;;;;;;;20.41;66.42;100259.75;5053212;28;20661;-77
2022/09/20 09:52:13;;;;;;;7.53;2.42;;;;;;;19.90;63.93;99848.78;5056051;28;20036;-77
2022/09/20 09:54:47;;;;;;;8.38;1.60;;;;;;;20.63;63.62;100075.56;5055570;28;20047;-77
2022/09/20 09:57:34;;;;;;;5.40;1.40;;;;;;;19.71;64.60;99895.06;5041032;28;20048;-76
2022/09/20 10:00:11;;;;;;;7.28;1.83;;;;;;;19.85;64.31;99959.75;5075311;28;20078;-77
2022/09/20 10:02:46;;;;;;;6.13;1.48;;;;;;;20.00;63.34;99911.28;5059932;28;20041;-77
2022/09/20 10:05:31;;;;;;;8.95;1.63;;;;;;;20.47;62.87;100048.41;5057519;28;20032;-77
2022/09/20 10:08:13;;;;;;;10.63;1.80;;;;;;;20.68;64.53;100315.41;5057146;28;20044;-77
2022/09/20 10:11:00;;;;;;;6.15;1.48;;;;;;;21.63;63.20;100436.16;5074933;28;20469;-77
2022/09/20 10:13:48;;;;;;;5.85;1.40;;;;;;;20.34;61.13;99838.09;5059290;28;20127;-77
2022/09/20 10:16:20;;;;;;;7.15;1.33;;;;;;;20.68;62.40;100125.53;5057073;28;20466;-77
2022/09/20 10:19:02;;;;;;;5.07;1.05;;;;;;;20.19;62.30;100014.84;5028201;28;20402;-77
2022/09/20 10:22:18;;;;;;;5.78;1.50;;;;;;;20.13;61.55;99954.31;5043479;28;20037;-77
2022/09/20 10:25:15;;;;;;;5.75;1.33;;;;;;;20.82;61.24;100122.25;4967037;28;20093;-77
2022/09/20 10:28:06;;;;;;;5.03;1.33;;;;;;;21.06;62.13;100279.50;4962780;28;20593;-77
2022/09/20 10:31:01;;;;;;;10.68;1.70;;;;;;;20.69;60.61;100045.81;4962388;28;20550;-77
2022/09/20 10:33:42;;;;;;;;;;;;;;;21.42;61.67;100405.94;4966881;28;20034;-77
2022/09/20 10:36:27;;;;;;;10.68;1.88;;;;;;;21.61;60.01;100218.28;4934299;28;19918;-76
2022/09/20 10:39:09;;;;;;;8.40;2.00;;;;;;;21.29;58.82;99996.22;4960528;28;20034;-77
2022/09/20 10:45:01;;;;;;;4.38;1.17;;;;;;;21.63;58.19;100045.88;4965457;28;20074;-76
2022/09/20 10:47:33;;;;;;;10.80;1.77;;;;;;;21.54;59.19;100168.75;4960565;28;20166;-77
2022/09/20 10:50:12;;;;;;;12.10;2.15;;;;;;;20.89;57.32;99750.44;4964312;28;20122;-76
2022/09/20 10:53:08;;;;;;;7.90;1.38;;;;;;;21.65;55.36;99791.09;4948446;28;20214;-76
2022/09/20 10:55:52;;;;;;;4.78;1.63;;;;;;;21.16;53.56;99388.66;5008402;28;20053;-76
2022/09/20 10:58:30;;;;;;;5.68;1.38;;;;;;;21.76;53.08;99610.00;5068223;28;20390;-77
2022/09/20 11:01:12;;;;;;;5.45;1.33;;;;;;;21.83;52.70;99560.84;5053156;28;20048;-76
2022/09/20 11:04:08;;;;;;;7.60;1.30;;;;;;;21.91;53.18;99745.09;5057008;28;20040;-77
2022/09/20 11:07:16;;;;;;;5.68;1.95;;;;;;;20.79;52.40;99211.41;5058226;28;20033;-77
2022/09/20 11:09:48;;;;;;;7.85;1.63;;;;;;;21.39;51.80;99431.66;5054732;28;20036;-77
2022/09/20 11:12:22;;;;;;;6.63;1.70;;;;;;;22.22;52.41;99845.88;5043400;28;20526;-76
2022/09/20 11:14:55;;;;;;;4.38;1.30;;;;;;;21.42;51.67;99439.31;5031333;28;20083;-76
2022/09/20 11:17:31;;;;;;;9.20;2.05;;;;;;;21.37;50.79;99281.78;5045034;28;20036;-77
2022/09/20 11:20:03;;;;;;;4.35;1.40;;;;;;;22.35;53.91;100130.97;5045118;28;20464;-77
2022/09/20 11:22:47;;;;;;;7.78;1.50;;;;;;;22.27;52.89;99941.91;5046716;28;20037;-77
2022/09/20 11:25:14;;;;;;;7.82;1.77;;;;;;;20.60;53.49;99490.34;5054724;28;20115;-77
2022/09/20 11:27:48;;;;;;;8.00;1.35;;;;;;;21.31;54.84;100029.38;5031143;28;20017;-76
2022/09/20 11:30:22;;;;;;;5.20;1.20;;;;;;;21.31;52.75;99728.06;5069021;28;20056;-77
2022/09/20 11:32:52;;;;;;;9.63;1.23;;;;;;;21.69;50.81;99617.56;5042157;28;20033;-76
2022/09/20 11:35:30;;;;;;;5.05;0.88;;;;;;;21.96;48.84;99470.72;5057617;28;20401;-76
2022/09/20 11:38:13;;;;;;;8.85;1.63;;;;;;;21.27;52.46;99691.63;5057982;28;20051;-76
2022/09/20 11:41:00;;;;;;;5.43;1.00;;;;;;;20.78;52.44;99630.16;5057666;28;20452;-76
2022/09/20 11:43:29;;;;;;;4.00;1.05;;;;;;;21.19;51.59;99670.38;5057057;28;20037;-76
2022/09/20 11:45:58;;;;;;;6.68;1.77;;;;;;;21.31;52.62;99828.50;5042323;28;20016;-76
2022/09/20 11:48:38;;;;;;;4.60;1.05;;;;;;;21.73;51.46;99810.69;5040887;28;20036;-76
2022/09/20 11:51:23;;;;;;;6.93;1.30;;;;;;;20.98;52.40;99723.69;5041187;28;20146;-76
2022/09/20 11:54:05;;;;;;;7.35;1.15;;;;;;;20.27;52.54;99528.50;5043761;28;20474;-76
2022/09/20 11:56:33;;;;;;;7.82;1.63;;;;;;;20.58;52.65;99714.84;5058108;28;20040;-76
2022/09/20 11:59:01;;;;;;;5.97;1.70;;;;;;;20.80;53.51;99877.56;5059202;28;20495;-76
2022/09/20 12:01:32;;;;;;;4.65;1.40;;;;;;;21.73;52.28;100057.91;5060838;28;20068;-76
2022/09/20 12:04:08;;;;;;;4.38;0.95;;;;;;;21.92;49.11;99600.03;5054725;28;20037;-76
2022/09/20 12:06:37;;;;;;;7.22;1.05;;;;;;;21.20;52.76;99922.56;5071778;28;20070;-76
2022/09/20 12:09:23;;;;;;;6.50;1.77;;;;;;;21.62;51.65;99881.25;5057987;28;20017;-77
2022/09/20 12:11:51;;;;;;;4.93;1.00;;;;;;;21.19;50.69;99632.38;5054086;28;20152;-76
2022/09/20 12:14:26;;;;;;;5.63;1.40;;;;;;;21.60;51.42;99915.16;5039042;28;20302;-77
2022/09/20 12:16:52;;;;;;;5.80;1.00;;;;;;;21.81;49.52;99751.28;5056669;28;20469;-76
2022/09/20 12:19:31;;;;;;;11.57;1.50;;;;;;;20.81;50.71;99479.63;5054052;28;20032;-76
2022/09/20 12:21:59;;;;;;;5.57;1.27;;;;;;;20.98;50.34;99522.91;5058773;28;20044;-76
2022/09/20 12:24:28;;;;;;;5.07;1.30;;;;;;;21.18;50.49;99598.19;5043404;28;20438;-76
2022/09/20 12:27:14;;;;;;;4.68;1.15;;;;;;;21.82;51.35;100021.91;5056813;28;20036;-76
2022/09/20 12:30:19;;;;;;;4.20;1.25;;;;;;;22.24;51.39;100096.56;4997813;28;20049;-77
2022/09/20 12:32:47;;;;;;;7.32;1.20;;;;;;;21.41;50.20;99621.47;5051810;28;20040;-76
2022/09/20 12:35:35;;;;;;;6.32;1.25;;;;;;;22.21;49.75;99861.38;5054167;28;20051;-76
2022/09/20 12:38:19;;;;;;;2.83;0.77;;;;;;;21.39;51.13;99760.16;5029986;28;20482;-76
2022/09/20 12:40:58;;;;;;;5.18;1.05;;;;;;;21.75;51.77;99996.84;5054272;28;20041;-75